Aviation Digital Data Service (ADDS)

Output produced by METARs form (0708 UTC 24 March 2019)
found at http://www.aviationweather.gov/metar/data/
 
WBGB 240600Z 32009KT 240V050 9999 FEW016 BKN300 33/26 Q1007
TAF WBGB 240500Z 2406/2506 34006KT 9999 FEW016 
     BECMG 2412/2414 10005KT
       
WMKB 240600Z 30010KT 240V340 9000 FEW017CB SCT140 BKN280 32/27 Q1008 NOSIG
TAF WMKB 240500Z 2406/2506 29010KT 8000 FEW020 
     TEMPO 2406/2408 6000 SHRA FEW017CB 
     BECMG 2412/2414 VRB03KT 
     TEMPO 2414/2418 5000 TSRA FEW017CB
       
WMKE 240600Z VRB06KT 9999 SCT015 BKN260 32/26 Q1008
TAF WMKE 240500Z 2406/2506 06007KT 9999 FEW015 BKN270 
     BECMG 2414/2416 VRB02KT
       
TAF WMAP 240500Z 2406/2506 VRB03KT 9999 FEW018 
     TEMPO 2407/2411 5000 TSRA FEW017CB
       
WBKK 240630Z 35006KT 270V060 9999 FEW014 FEW016CB SCT140 BKN280 34/24 Q1007 NOSIG
TAF WBKK 240500Z 2406/2506 33008KT 9999 FEW014 
     BECMG 2408/2410 03008KT 
     BECMG 2413/2415 12005KT
       
WMKK 240630Z 25008KT 190V300 9999 FEW017CB SCT018 BKN280 32/23 Q1008 NOSIG
TAF AMD WMKK 240607Z 2406/2512 27005KT 9999 FEW017CB 
     TEMPO 2406/2410 27010KT 3000 TSRA FEW010 FEW017CB 
     BECMG 2413/2414 VRB03KT FEW030 
     BECMG 2420/2421 5000 HZ FEW017CB 
     BECMG 2502/2503 9999 NSW 
     TEMPO 2508/2512 25007KT 4000 TSRA FEW008 FEW017CB
       
WMKD 240600Z 09008KT 020V180 9000 SCT019 BKN280 34/26 Q1008 NOSIG
WBGG 240630Z VRB03KT 9999 SCT020 SCT150 BKN300 33/25 Q1008 NOSIG
TAF WBGG 240500Z 2406/2506 33006KT 9999 FEW016 
     BECMG 2412/2414 VRB03KT
       
WBKL 240600Z 02007KT 320V060 9999 FEW014 BKN300 32/26 Q1008
TAF WBKL 240500Z 2406/2506 35010KT 9999 FEW012 
     TEMPO 2410/2414 4000 RA FEW010 FEW012CB SCT040
       
WMKL 240600Z VRB03KT 9999 -RA FEW010 SCT140 BKN260 31/28 Q1009 RERA
TAF WMKL 240500Z 2406/2506 25007KT 9999 FEW020 BKN280 
     TEMPO 2406/2409 6000 SHRA FEW017CB SCT020 
     BECMG 2410/2412 VRB03KT FEW026
       
WMKM 240600Z VRB06KT 9999 SCT020 SCT150 BKN280 34/23 Q1009
TAF WMKM 240500Z 2406/2506 25008KT 9999 FEW020 
     TEMPO 2407/2411 5000 TSRA FEW017CB 
     BECMG 2413/2415 VRB02KT FEW027
       
WBGR 240600Z 34008KT 300V030 9999 TS FEW015CB SCT016 BKN150 29/26 Q1008
TAF WBGR 240500Z 2406/2506 30006KT 9999 FEW016 
     TEMPO 2406/2409 3000 TSRA SCT014 FEW015CB 
     BECMG 2411/2413 08005KT
       
WMKP 240630Z VRB05KT 9000 FEW020 SCT140 BKN270 34/26 Q1008 NOSIG
TAF WMKP 240500Z 2406/2506 27007KT 8000 FEW020 SCT140 BKN270 
     TEMPO 2406/2409 7000 -SHRA FEW017CB 
     BECMG 2410/2412 VRB03KT FEW025 
     TEMPO 2416/2420 5000 TSRA FEW010 FEW017CB
       
TAF WMBT 240500Z 2406/2506 VRB03KT 9999 FEW020
       
WBKS 240600Z 05009KT 020V080 9999 FEW016 BKN300 30/24 Q1010
TAF WBKS 240500Z 2406/2506 04010KT 9999 FEW015
       
WBGS 240600Z VRB03KT 9999 SCT018 SCT150 BKN300 34/24 Q1007
TAF WBGS 240500Z 2406/2506 VRB03KT 9999 FEW018
       
WMSA 240600Z 22007KT 170V280 9000 FEW017CB SCT019 BKN280 34/26 Q1008
TAF WMSA 240500Z 2406/2506 28007KT 9999 FEW018 
     TEMPO 2408/2412 26010KT 5000 TSRA FEW016CB 
     BECMG 2413/2414 VRB03KT FEW024 
     BECMG 2505/2506 27005KT FEW017CB
       
WMKA 240600Z 26009KT 190V300 9999 FEW020 BKN300 36/28 Q1008
TAF WMKA 240500Z 2406/2506 26010KT 9999 FEW020 BKN300 
     TEMPO 2408/2412 6000 -TSRA FEW017CB 
     BECMG 2411/2412 VRB03KT FEW030
       
WMKI 240600Z VRB05KT 9999 SCT020 BKN280 34/24 Q1008
TAF WMKI 240500Z 2406/2506 21010KT 9999 FEW020 
     TEMPO 2408/2412 5000 TSRA FEW017CB 
     BECMG 2412/2414 VRB03KT FEW030
       
WMKJ 240600Z VRB02KT 9999 FEW017CB SCT018 BKN300 33/28 Q1008
TAF WMKJ 240500Z 2406/2506 VRB03KT 9999 FEW019 
     TEMPO 2408/2412 08010KT 5000 TSRA FEW016CB 
     BECMG 2414/2416 VRB03KT FEW023 
     BECMG 2501/2502 FEW017CB
       
WMKC 240600Z 04009KT 360V090 9999 FEW018 BKN280 33/25 Q1009
TAF WMKC 240500Z 2406/2506 08010KT 9999 FEW018 BKN280 
     BECMG 2415/2417 VRB02KT
       
WMKN 240600Z VRB05KT 9999 FEW018 BKN300 32/25 Q1009
TAF WMKN 240500Z 2406/2506 09007KT 9999 FEW018 BKN300 
     BECMG 2416/2418 VRB03KT
       
WBKW 240600Z 14011KT 090V170 9999 FEW017 BKN300 32/25 Q1008
TAF WBKW 240500Z 2406/2506 10008KT 9999 FEW017 
     BECMG 2412/2414 35005KT